createdAt,value
2023-02-06T00:00:20.286Z,4.65
2023-02-06T00:03:06.677Z,4.28
2023-02-06T00:05:59.207Z,4.85
2023-02-06T00:24:18.671Z,4.32
2023-02-06T00:27:06.311Z,4.68
2023-02-06T00:29:52.679Z,5.22
2023-02-06T00:32:39.748Z,4.93
2023-02-06T00:35:26.791Z,5.22
2023-02-06T00:38:13.454Z,5.00
2023-02-06T00:41:00.508Z,4.97
2023-02-06T00:43:48.157Z,4.13
2023-02-06T00:46:34.794Z,4.38
2023-02-06T00:49:21.527Z,5.07
2023-02-06T00:52:08.349Z,5.28
2023-02-06T00:54:55.089Z,4.63
2023-02-06T00:57:41.498Z,4.47
2023-02-06T01:00:29.192Z,4.80
2023-02-06T01:03:17.215Z,4.38
2023-02-06T01:06:04.109Z,4.72
2023-02-06T01:08:50.800Z,4.47
2023-02-06T01:11:37.463Z,5.20
2023-02-06T01:14:24.562Z,4.93
2023-02-06T01:17:12.552Z,4.32
2023-02-06T01:19:59.499Z,4.97
2023-02-06T01:22:46.363Z,4.88
2023-02-06T01:25:33.460Z,4.55
2023-02-06T01:28:20.361Z,5.97
2023-02-06T01:31:12.041Z,4.70
2023-02-06T01:34:01.573Z,4.13
2023-02-06T01:36:48.218Z,5.70
2023-02-06T01:39:35.556Z,5.35
2023-02-06T01:42:22.374Z,4.72
2023-02-06T01:45:38.924Z,4.28
2023-02-06T01:48:31.483Z,4.55
2023-02-06T01:51:22.448Z,4.40
2023-02-06T01:54:10.576Z,4.20
2023-02-06T01:57:02.911Z,5.70
2023-02-06T01:59:53.740Z,4.00
2023-02-06T02:02:48.372Z,5.00
2023-02-06T02:05:36.624Z,3.67
2023-02-06T02:08:32.668Z,3.95
2023-02-06T02:11:24.283Z,4.18
2023-02-06T02:14:13.473Z,3.75
2023-02-06T02:17:15.804Z,4.15
2023-02-06T02:20:40.839Z,3.95
2023-02-06T02:23:37.656Z,4.00
2023-02-06T02:26:56.494Z,3.80
2023-02-06T02:30:10.912Z,7.30
2023-02-06T02:33:28.813Z,3.53
2023-02-06T02:36:23.529Z,4.25
2023-02-06T02:39:19.117Z,5.72
2023-02-06T02:42:14.602Z,5.20
2023-02-06T02:45:07.652Z,4.70
2023-02-06T02:47:59.356Z,4.30
2023-02-06T02:50:46.279Z,3.42
2023-02-06T02:53:34.395Z,5.43
2023-02-06T02:56:23.794Z,4.70
2023-02-06T02:59:19.218Z,4.00
2023-02-06T03:02:09.047Z,5.05
2023-02-06T03:04:59.251Z,3.63
2023-02-06T03:07:59.198Z,3.90
2023-02-06T03:10:53.904Z,3.42
2023-02-06T03:13:45.317Z,4.40
2023-02-06T03:16:39.017Z,3.63
2023-02-06T03:19:30.193Z,3.10
2023-02-06T03:22:17.769Z,3.67
2023-02-06T03:25:08.067Z,4.25
2023-02-06T03:30:49.134Z,3.72
2023-02-06T03:33:40.986Z,3.63
2023-02-06T03:36:27.884Z,3.10
2023-02-06T03:39:14.502Z,3.35
2023-02-06T03:42:04.562Z,5.35
2023-02-06T03:45:01.192Z,2.75
2023-02-06T03:47:49.791Z,3.13
2023-02-06T03:50:37.379Z,4.53
2023-02-06T03:53:26.554Z,3.53
2023-02-06T03:56:17.176Z,3.92
2023-02-06T03:59:04.243Z,4.13
2023-02-06T04:01:55.050Z,3.80
2023-02-06T04:04:43.450Z,3.40
2023-02-06T04:07:32.133Z,3.38
2023-02-06T04:10:18.594Z,3.95
2023-02-06T04:13:05.330Z,3.47
2023-02-06T04:15:52.050Z,3.80
2023-02-06T04:18:39.979Z,3.53
2023-02-06T04:21:26.614Z,3.35
2023-02-06T04:24:13.177Z,4.05
2023-02-06T04:27:00.114Z,3.53
2023-02-06T04:29:46.582Z,4.03
2023-02-06T04:32:33.763Z,3.72
2023-02-06T04:35:21.501Z,6.60
2023-02-06T04:38:08.123Z,3.88
2023-02-06T04:40:54.807Z,3.78
2023-02-06T04:43:41.590Z,4.70
2023-02-06T04:46:28.394Z,3.90
2023-02-06T04:49:15.408Z,5.65
2023-02-06T04:52:03.777Z,3.20
2023-02-06T04:54:50.045Z,4.80
2023-02-06T04:57:36.616Z,3.67
2023-02-06T05:00:23.585Z,5.20
2023-02-06T05:03:10.337Z,3.55
2023-02-06T05:05:59.670Z,3.92
2023-02-06T05:08:47.915Z,4.18
2023-02-06T05:11:34.925Z,4.57
2023-02-06T05:14:21.830Z,4.50
2023-02-06T05:17:08.170Z,3.50
2023-02-06T05:19:56.447Z,3.67
2023-02-06T05:22:44.592Z,5.03
2023-02-06T05:25:32.515Z,3.65
2023-02-06T05:28:19.357Z,3.88
2023-02-06T05:31:06.079Z,3.38
2023-02-06T05:33:52.959Z,3.90
2023-02-06T05:36:39.273Z,5.78
2023-02-06T05:39:27.119Z,12.07
2023-02-06T05:42:14.745Z,9.13
2023-02-06T05:45:01.264Z,5.88
2023-02-06T05:47:47.795Z,5.43
2023-02-06T05:50:34.393Z,5.18
2023-02-06T05:53:20.937Z,4.38
2023-02-06T05:56:08.283Z,5.07
2023-02-06T05:58:56.267Z,3.67
2023-02-06T06:01:42.813Z,4.55
2023-02-06T06:04:29.593Z,4.00
2023-02-06T06:07:17.078Z,4.22
2023-02-06T06:10:03.786Z,4.38
2023-02-06T06:12:50.818Z,8.68
2023-02-06T06:15:39.080Z,5.35
2023-02-06T06:18:26.039Z,19.85
2023-02-06T06:21:12.473Z,4.72
2023-02-06T06:23:59.176Z,5.47
2023-02-06T06:26:45.798Z,4.57
2023-02-06T06:29:32.281Z,4.15
2023-02-06T06:32:20.907Z,5.70
2023-02-06T06:35:09.090Z,9.75
2023-02-06T06:37:55.603Z,17.25
2023-02-06T06:40:42.935Z,11.55
2023-02-06T06:43:30.443Z,10.38
2023-02-06T06:46:17.150Z,6.35
2023-02-06T06:49:05.140Z,5.25
2023-02-06T06:51:52.414Z,4.45
2023-02-06T06:54:39.039Z,4.65
2023-02-06T06:57:25.771Z,5.32
2023-02-06T07:00:14.218Z,11.55
2023-02-06T07:03:01.402Z,7.75
2023-02-06T07:05:50.332Z,9.35
2023-02-06T07:08:41.903Z,8.13
2023-02-06T07:11:28.872Z,5.57
2023-02-06T07:14:15.755Z,5.38
2023-02-06T07:17:02.529Z,5.82
2023-02-06T07:19:51.511Z,17.60
2023-02-06T07:22:39.364Z,6.72
2023-02-06T07:25:26.156Z,10.02
2023-02-06T07:28:13.073Z,7.07
2023-02-06T07:31:01.514Z,7.30
2023-02-06T07:33:49.008Z,7.55
2023-02-06T07:36:36.368Z,5.88
2023-02-06T07:39:24.396Z,5.95
2023-02-06T07:42:12.116Z,6.80
2023-02-06T07:45:10.984Z,10.88
2023-02-06T07:47:57.782Z,6.28
2023-02-06T07:50:44.176Z,5.43
2023-02-06T07:53:30.842Z,6.05
2023-02-06T07:56:23.207Z,4.55
2023-02-06T07:59:10.419Z,6.10
2023-02-06T08:01:56.973Z,5.35
2023-02-06T08:04:43.933Z,4.97
2023-02-06T08:07:30.946Z,5.32
2023-02-06T08:10:17.774Z,4.97
2023-02-06T08:13:05.947Z,4.53
2023-02-06T08:15:52.714Z,5.47
2023-02-06T08:18:39.866Z,5.32
2023-02-06T08:21:27.013Z,4.68
2023-02-06T08:24:14.355Z,5.40
2023-02-06T08:27:01.063Z,5.68
2023-02-06T08:29:49.146Z,4.82
2023-02-06T08:32:36.321Z,5.32
2023-02-06T08:35:22.952Z,4.97
2023-02-06T08:38:09.812Z,5.03
2023-02-06T08:40:56.441Z,5.30
2023-02-06T08:43:43.256Z,4.70
2023-02-06T08:46:33.164Z,7.00
2023-02-06T08:49:21.330Z,5.10
2023-02-06T08:52:08.097Z,4.90
2023-02-06T08:54:54.810Z,4.35
2023-02-06T08:57:41.533Z,6.10
2023-02-06T09:00:28.682Z,4.47
2023-02-06T09:03:16.812Z,4.93
2023-02-06T09:06:09.694Z,5.15
2023-02-06T09:08:58.199Z,4.90
2023-02-06T09:11:45.086Z,6.05
2023-02-06T09:14:32.222Z,4.97
2023-02-06T09:17:18.810Z,5.60
2023-02-06T09:20:08.125Z,5.22
2023-02-06T09:22:55.111Z,4.97
2023-02-06T09:25:42.132Z,5.57
2023-02-06T09:28:28.731Z,6.43
2023-02-06T09:31:15.658Z,6.65
2023-02-06T09:34:02.956Z,6.15
2023-02-06T09:36:51.177Z,5.95
2023-02-06T09:39:38.035Z,5.95
2023-02-06T09:42:33.834Z,5.13
2023-02-06T09:45:23.588Z,5.03
2023-02-06T09:48:18.459Z,5.60
2023-02-06T09:51:16.520Z,5.20
2023-02-06T09:54:13.487Z,4.88
2023-02-06T09:57:09.114Z,4.85
2023-02-06T10:00:01.267Z,5.05
2023-02-06T10:03:04.535Z,5.18
2023-02-06T10:06:07.137Z,5.43
2023-02-06T10:09:02.187Z,5.35
2023-02-06T10:11:56.942Z,5.03
2023-02-06T10:14:49.851Z,4.78
2023-02-06T10:17:43.669Z,6.20
2023-02-06T10:20:34.708Z,5.18
2023-02-06T10:23:25.865Z,4.15
2023-02-06T10:26:18.263Z,5.22
2023-02-06T10:29:07.852Z,5.38
2023-02-06T10:32:10.341Z,5.43
2023-02-06T10:35:21.206Z,5.03
2023-02-06T10:38:27.218Z,4.95
2023-02-06T10:41:23.979Z,4.38
2023-02-06T10:44:23.005Z,3.70
2023-02-06T10:47:22.639Z,3.85
2023-02-06T10:50:20.397Z,5.30
2023-02-06T10:53:16.045Z,4.80
2023-02-06T10:56:05.916Z,3.42
2023-02-06T10:58:57.145Z,3.35
2023-02-06T11:01:48.406Z,4.05
2023-02-06T11:04:38.732Z,3.35
2023-02-06T11:07:30.908Z,3.53
2023-02-06T11:10:20.270Z,3.17
2023-02-06T11:13:12.067Z,2.70
2023-02-06T11:16:02.733Z,4.00
2023-02-06T11:18:52.075Z,2.97
2023-02-06T11:21:55.122Z,2.67
2023-02-06T11:25:01.232Z,4.10
2023-02-06T11:27:48.377Z,3.15
2023-02-06T11:30:38.957Z,3.22
2023-02-06T11:33:35.894Z,2.63
2023-02-06T11:36:30.613Z,3.00
2023-02-06T11:39:24.450Z,2.58
2023-02-06T11:42:21.741Z,3.00
2023-02-06T11:45:25.738Z,2.95
2023-02-06T11:48:37.845Z,2.78
2023-02-06T11:51:27.818Z,3.08
2023-02-06T11:54:22.022Z,2.97
2023-02-06T11:57:21.482Z,2.60
2023-02-06T12:00:21.636Z,2.50
2023-02-06T12:03:27.557Z,2.92
2023-02-06T12:06:16.648Z,2.90
2023-02-06T12:09:10.531Z,2.35
2023-02-06T12:12:02.601Z,3.10
2023-02-06T12:14:55.347Z,2.67
2023-02-06T12:17:46.087Z,2.50
2023-02-06T12:20:34.944Z,3.67
2023-02-06T12:23:28.920Z,2.38
2023-02-06T12:26:20.529Z,2.88
2023-02-06T12:29:13.018Z,3.17
2023-02-06T12:32:07.561Z,3.35
2023-02-06T12:35:00.337Z,2.67
2023-02-06T12:37:52.409Z,3.08
2023-02-06T12:40:46.102Z,3.13
2023-02-06T12:43:37.484Z,2.83
2023-02-06T12:46:28.393Z,3.22
2023-02-06T12:49:21.587Z,2.63
2023-02-06T12:52:17.028Z,2.30
2023-02-06T12:55:13.364Z,2.83
2023-02-06T12:58:00.475Z,2.47
2023-02-06T13:00:57.464Z,2.60
2023-02-06T13:03:45.789Z,3.08
2023-02-06T13:06:40.640Z,2.30
2023-02-06T13:09:32.394Z,2.65
2023-02-06T13:12:22.622Z,3.03
2023-02-06T13:15:33.620Z,2.08
2023-02-06T13:18:52.456Z,2.10
2023-02-06T13:21:39.167Z,2.70
2023-02-06T13:24:25.863Z,2.58
2023-02-06T13:27:16.059Z,3.03
2023-02-06T13:33:16.395Z,2.20
2023-02-06T13:36:09.945Z,3.08
2023-02-06T13:38:57.324Z,2.70
2023-02-06T13:41:44.661Z,2.40
2023-02-06T13:44:34.692Z,2.03
2023-02-06T13:47:59.179Z,2.47
2023-02-06T13:50:58.534Z,2.13
2023-02-06T13:54:19.583Z,1.90
2023-02-06T13:57:38.591Z,2.70
2023-02-06T14:00:30.203Z,1.70
2023-02-06T14:03:23.665Z,2.03
2023-02-06T14:06:24.611Z,1.95
2023-02-06T14:09:46.516Z,2.70
2023-02-06T14:12:46.945Z,1.85
2023-02-06T14:15:40.769Z,2.40
2023-02-06T14:18:41.518Z,2.25
2023-02-06T14:21:37.416Z,1.98
2023-02-06T14:24:50.986Z,2.55
2023-02-06T14:27:52.586Z,1.90
2023-02-06T14:30:52.131Z,2.05
2023-02-06T14:33:53.164Z,2.35
2023-02-06T14:36:57.790Z,2.33
2023-02-06T14:39:50.510Z,2.42
2023-02-06T14:42:40.090Z,1.90
2023-02-06T14:45:36.048Z,2.88
2023-02-06T14:48:34.063Z,2.17
2023-02-06T14:51:26.168Z,2.60
2023-02-06T14:54:29.961Z,2.65
2023-02-06T14:57:23.084Z,3.17
2023-02-06T15:00:19.219Z,2.30
2023-02-06T15:03:09.008Z,2.72
2023-02-06T15:06:07.042Z,2.00
2023-02-06T15:08:53.840Z,2.40
2023-02-06T15:11:40.473Z,1.88
2023-02-06T15:14:30.746Z,2.17
2023-02-06T15:17:21.393Z,2.13
2023-02-06T15:20:26.211Z,2.42
2023-02-06T15:23:18.825Z,1.80
2023-02-06T15:26:16.151Z,2.60
2023-02-06T15:29:04.779Z,1.95
2023-02-06T15:31:55.745Z,2.40
2023-02-06T15:34:46.710Z,2.70
2023-02-06T15:37:35.700Z,2.40
2023-02-06T15:40:29.826Z,2.42
2023-02-06T15:43:20.015Z,2.05
2023-02-06T15:46:07.210Z,2.42
2023-02-06T15:48:57.394Z,2.15
2023-02-06T15:54:41.065Z,3.05
2023-02-06T15:57:31.811Z,2.60
2023-02-06T16:00:23.926Z,2.70
2023-02-06T16:03:20.928Z,2.95
2023-02-06T16:06:16.417Z,2.05
2023-02-06T16:09:07.213Z,2.65
2023-02-06T16:11:57.003Z,3.60
2023-02-06T16:14:56.410Z,2.42
2023-02-06T16:17:43.140Z,3.28
2023-02-06T16:20:37.149Z,2.97
2023-02-06T16:23:28.237Z,2.90
2023-02-06T16:26:18.198Z,1.85
2023-02-06T16:29:16.287Z,3.17
2023-02-06T16:32:13.231Z,2.45
2023-02-06T16:35:01.216Z,3.70
2023-02-06T16:37:49.991Z,2.97
2023-02-06T16:40:38.541Z,4.63
2023-02-06T16:43:28.709Z,2.65
2023-02-06T16:46:15.832Z,2.70
2023-02-06T16:49:02.541Z,5.70
2023-02-06T16:51:52.343Z,2.83
2023-02-06T16:54:39.004Z,4.15
2023-02-06T16:57:31.252Z,9.23
2023-02-06T17:00:19.966Z,4.05
2023-02-06T17:03:07.132Z,3.25
2023-02-06T17:05:54.679Z,2.72
2023-02-06T17:08:41.343Z,2.53
2023-02-06T17:11:28.035Z,2.45
2023-02-06T17:14:16.098Z,2.80
2023-02-06T17:17:05.375Z,3.50
2023-02-06T17:19:53.026Z,4.37
2023-02-06T17:22:39.574Z,3.33
2023-02-06T17:25:26.827Z,3.08
2023-02-06T17:28:17.146Z,3.00
2023-02-06T17:31:05.723Z,3.20
2023-02-06T17:33:52.113Z,3.15
2023-02-06T17:36:40.850Z,3.05
2023-02-06T17:39:27.516Z,2.83
2023-02-06T17:42:14.891Z,2.25
2023-02-06T17:45:01.836Z,3.25
2023-02-06T17:47:50.034Z,2.67
2023-02-06T17:50:38.368Z,2.35
2023-02-06T17:53:24.879Z,4.78
2023-02-06T17:56:13.209Z,4.35
2023-02-06T17:59:00.053Z,4.90
2023-02-06T18:01:46.699Z,4.15
2023-02-06T18:04:35.098Z,3.70
2023-02-06T18:07:22.150Z,7.88
2023-02-06T18:10:10.995Z,5.40
2023-02-06T18:12:57.620Z,4.07
2023-02-06T18:15:50.200Z,3.95
2023-02-06T18:18:37.041Z,3.50
2023-02-06T18:21:25.378Z,6.53
2023-02-06T18:24:11.744Z,6.35
2023-02-06T18:26:58.470Z,4.03
2023-02-06T18:29:50.213Z,3.55
2023-02-06T18:32:38.965Z,4.88
2023-02-06T18:35:25.549Z,4.00
2023-02-06T18:38:14.281Z,4.10
2023-02-06T18:41:04.559Z,4.75
2023-02-06T18:43:50.458Z,4.25
2023-02-06T18:46:37.996Z,3.20
2023-02-06T18:49:24.654Z,5.68
2023-02-06T18:52:11.473Z,11.30
2023-02-06T18:54:59.629Z,6.95
2023-02-06T18:57:46.544Z,8.52
2023-02-06T19:00:35.875Z,11.32
2023-02-06T19:03:23.146Z,8.05
2023-02-06T19:06:14.954Z,6.57
2023-02-06T19:09:02.165Z,6.78
2023-02-06T19:11:50.282Z,6.47
2023-02-06T19:14:36.996Z,6.72
2023-02-06T19:17:23.925Z,5.22
2023-02-06T19:20:13.045Z,6.25
2023-02-06T19:22:59.672Z,5.22
2023-02-06T19:25:46.343Z,5.03
2023-02-06T19:28:35.783Z,4.88
2023-02-06T19:31:24.686Z,5.23
2023-02-06T19:34:11.943Z,7.28
2023-02-06T19:36:58.484Z,7.57
2023-02-06T19:39:45.299Z,6.95
2023-02-06T19:42:32.058Z,5.93
2023-02-06T19:45:20.177Z,6.70
2023-02-06T19:48:11.923Z,5.05
2023-02-06T19:51:03.512Z,4.30
2023-02-06T19:53:51.070Z,5.07
2023-02-06T19:56:39.588Z,5.13
2023-02-06T19:59:28.529Z,5.55
2023-02-06T20:02:16.715Z,5.03
2023-02-06T20:05:03.389Z,6.30
2023-02-06T20:07:49.887Z,5.13
2023-02-06T20:10:38.293Z,6.18
2023-02-06T20:13:25.478Z,5.30
2023-02-06T20:16:16.641Z,6.13
2023-02-06T20:19:09.645Z,5.88
2023-02-06T20:21:59.131Z,6.50
2023-02-06T20:24:46.118Z,7.65
2023-02-06T20:27:32.895Z,9.77
2023-02-06T20:30:22.032Z,7.38
2023-02-06T20:33:09.384Z,8.13
2023-02-06T20:35:57.484Z,6.93
2023-02-06T20:38:48.314Z,7.40
2023-02-06T20:41:35.268Z,7.90
2023-02-06T20:44:22.524Z,6.80
2023-02-06T20:47:09.388Z,7.97
2023-02-06T20:49:55.951Z,7.90
2023-02-06T20:52:43.888Z,10.30
2023-02-06T20:55:30.814Z,9.55
2023-02-06T20:58:17.133Z,6.63
2023-02-06T21:01:03.750Z,7.95
2023-02-06T21:03:52.481Z,8.55
2023-02-06T21:06:40.635Z,7.32
2023-02-06T21:09:29.112Z,16.35
2023-02-06T21:12:15.927Z,8.35
2023-02-06T21:15:02.417Z,7.18
2023-02-06T21:17:48.841Z,7.32
2023-02-06T21:20:35.676Z,7.43
2023-02-06T21:23:23.183Z,5.72
2023-02-06T21:26:12.770Z,7.75
2023-02-06T21:29:00.204Z,11.20
2023-02-06T21:31:46.844Z,9.70
2023-02-06T21:34:33.515Z,9.48
2023-02-06T21:37:22.395Z,8.15
2023-02-06T21:40:09.349Z,8.07
2023-02-06T21:42:57.500Z,7.70
2023-02-06T21:45:44.851Z,6.68
2023-02-06T21:48:33.904Z,5.95
2023-02-06T21:51:21.555Z,6.47
2023-02-06T21:54:08.056Z,7.30
2023-02-06T21:56:54.660Z,7.05
2023-02-06T21:59:42.357Z,5.97
2023-02-06T22:02:29.033Z,6.82
2023-02-06T22:05:15.652Z,7.05
2023-02-06T22:08:02.220Z,8.35
2023-02-06T22:10:48.867Z,8.02
2023-02-06T22:13:35.703Z,9.57
2023-02-06T22:16:24.823Z,10.23
2023-02-06T22:19:11.714Z,10.25
2023-02-06T22:21:58.448Z,8.95
2023-02-06T22:24:45.195Z,8.43
2023-02-06T22:27:33.719Z,7.25
2023-02-06T22:30:20.635Z,7.45
2023-02-06T22:33:08.970Z,7.93
2023-02-06T22:35:55.570Z,6.93
2023-02-06T22:38:43.715Z,6.47
2023-02-06T22:41:31.011Z,5.75
2023-02-06T22:44:19.112Z,7.53
2023-02-06T22:47:05.666Z,6.45
2023-02-06T22:49:53.680Z,8.10
2023-02-06T22:52:57.373Z,7.40
2023-02-06T22:56:01.985Z,6.68
2023-02-06T22:58:49.485Z,6.32
2023-02-06T23:01:57.698Z,7.45
2023-02-06T23:04:44.289Z,5.28
2023-02-06T23:07:32.380Z,6.30
2023-02-06T23:10:19.075Z,7.57
2023-02-06T23:13:05.275Z,5.90
2023-02-06T23:15:52.356Z,6.18
2023-02-06T23:18:39.142Z,5.75
2023-02-06T23:21:27.212Z,5.82
2023-02-06T23:24:15.883Z,6.00
2023-02-06T23:27:02.397Z,7.05
2023-02-06T23:29:48.790Z,7.28
2023-02-06T23:32:35.716Z,7.22
2023-02-06T23:35:22.104Z,8.32
2023-02-06T23:38:09.662Z,7.85
2023-02-06T23:40:57.478Z,9.10
2023-02-06T23:43:44.637Z,7.47
2023-02-06T23:46:33.381Z,9.48
2023-02-06T23:49:19.769Z,7.30
2023-02-06T23:52:06.421Z,6.45
2023-02-06T23:54:53.344Z,6.75
2023-02-06T23:57:41.432Z,6.30
